Time,TemperatureF,DewpointF,PressureIn,WindDirection,WindDirectionDegrees,WindSpeedMPH,WindSpeedGustMPH,Humidity,HourlyPrecipIn,Conditions,Clouds,dailyrainin,SoftwareType,DateUTC
2013-01-25 00:02:00,52.2,49.7,30.25,NNW,332,0.0,0.0,91,0.00,,,0.00,Wunderground v.1.15,2013-01-25 05:02:00,
2013-01-25 00:07:00,52.0,49.5,30.24,NNW,332,0.0,0.0,91,0.00,,,0.00,Wunderground v.1.15,2013-01-25 05:07:00,
2013-01-25 00:12:00,51.8,49.3,30.25,NNW,332,0.0,0.0,91,0.00,,,0.00,Wunderground v.1.15,2013-01-25 05:12:00,
2013-01-25 00:17:00,51.7,49.5,30.24,NNW,332,0.0,0.0,92,0.00,,,0.00,Wunderground v.1.15,2013-01-25 05:17:00,
2013-01-25 00:22:00,51.6,49.4,30.24,NNW,332,0.0,0.0,92,0.00,,,0.00,Wunderground v.1.15,2013-01-25 05:22:00,
2013-01-25 00:27:00,51.6,49.4,30.24,NNW,332,0.0,0.0,92,0.00,,,0.00,Wunderground v.1.15,2013-01-25 05:27:00,
2013-01-25 00:32:00,51.5,49.3,30.24,NNW,332,0.0,0.0,92,0.00,,,0.00,Wunderground v.1.15,2013-01-25 05:32:00,
2013-01-25 00:37:00,51.4,49.4,30.24,NNW,332,0.0,0.0,93,0.00,,,0.00,Wunderground v.1.15,2013-01-25 05:37:00,
2013-01-25 00:47:00,51.5,49.8,30.25,NNW,332,0.0,0.0,94,0.00,,,0.00,Wunderground v.1.15,2013-01-25 05:47:00,
2013-01-25 00:52:00,51.8,50.1,30.25,NNW,332,0.0,0.0,94,0.00,,,0.00,Wunderground v.1.15,2013-01-25 05:52:00,
2013-01-25 01:02:00,51.9,50.2,30.25,NNW,332,0.0,0.0,94,0.00,,,0.00,Wunderground v.1.15,2013-01-25 06:02:00,
2013-01-25 01:07:00,52.0,50.3,30.25,NNW,332,0.0,0.0,94,0.00,,,0.00,Wunderground v.1.15,2013-01-25 06:07:00,
2013-01-25 01:17:00,52.4,51.0,30.25,NNW,332,0.0,0.0,95,0.00,,,0.00,Wunderground v.1.15,2013-01-25 06:17:00,
2013-01-25 01:22:00,52.6,51.2,30.26,NNW,332,0.0,0.0,95,0.00,,,0.00,Wunderground v.1.15,2013-01-25 06:22:00,
2013-01-25 01:27:00,52.7,51.3,30.26,NNW,332,0.0,0.0,95,0.00,,,0.00,Wunderground v.1.15,2013-01-25 06:27:00,
2013-01-25 01:37:00,52.8,51.1,30.26,NNW,332,0.0,0.0,94,0.00,,,0.00,Wunderground v.1.15,2013-01-25 06:37:00,
2013-01-25 01:42:00,52.8,51.1,30.26,NNW,332,0.0,0.0,94,0.00,,,0.00,Wunderground v.1.15,2013-01-25 06:42:00,
2013-01-25 01:47:00,52.7,51.0,30.26,NE,37,0.0,2.0,94,0.00,,,0.00,Wunderground v.1.15,2013-01-25 06:47:00,
2013-01-25 01:52:00,52.6,50.9,30.26,NE,38,1.0,1.0,94,0.00,,,0.00,Wunderground v.1.15,2013-01-25 06:52:00,
2013-01-25 01:57:00,52.4,50.7,30.26,NE,49,1.0,1.0,94,0.00,,,0.00,Wunderground v.1.15,2013-01-25 06:57:00,
2013-01-25 02:02:00,52.4,50.7,30.25,NE,50,0.0,2.0,94,0.00,,,0.00,Wunderground v.1.15,2013-01-25 07:02:00,
2013-01-25 02:07:00,52.4,50.7,30.25,NE,52,1.0,2.0,94,0.00,,,0.00,Wunderground v.1.15,2013-01-25 07:07:00,
2013-01-25 02:17:00,52.2,50.5,30.25,NE,52,0.0,1.0,94,0.00,,,0.00,Wunderground v.1.15,2013-01-25 07:17:00,
2013-01-25 02:22:00,52.0,50.3,30.25,NE,52,0.0,0.0,94,0.00,,,0.00,Wunderground v.1.15,2013-01-25 07:22:00,
2013-01-25 02:32:00,51.6,49.9,30.25,NE,52,0.0,0.0,94,0.00,,,0.00,Wunderground v.1.15,2013-01-25 07:32:00,
2013-01-25 02:42:00,51.4,49.7,30.25,NE,52,0.0,0.0,94,0.00,,,0.00,Wunderground v.1.15,2013-01-25 07:42:00,
2013-01-25 02:47:00,51.3,49.6,30.24,NE,52,0.0,0.0,94,0.00,,,0.00,Wunderground v.1.15,2013-01-25 07:47:00,
2013-01-25 02:52:00,51.2,49.5,30.24,NE,52,0.0,0.0,94,0.00,,,0.00,Wunderground v.1.15,2013-01-25 07:52:00,
2013-01-25 03:02:00,50.8,49.1,30.24,NE,52,0.0,0.0,94,0.00,,,0.00,Wunderground v.1.15,2013-01-25 08:02:00,
2013-01-25 03:07:00,50.7,49.0,30.23,NE,52,0.0,0.0,94,0.00,,,0.00,Wunderground v.1.15,2013-01-25 08:07:00,
2013-01-25 03:12:00,50.6,48.9,30.23,NE,52,0.0,0.0,94,0.00,,,0.00,Wunderground v.1.15,2013-01-25 08:12:00,
2013-01-25 03:17:00,50.6,48.9,30.23,NE,52,0.0,0.0,94,0.00,,,0.00,Wunderground v.1.15,2013-01-25 08:17:00,
2013-01-25 03:27:00,50.2,48.5,30.23,NE,52,0.0,0.0,94,0.00,,,0.00,Wunderground v.1.15,2013-01-25 08:27:00,
2013-01-25 03:32:00,50.0,48.3,30.22,NE,52,0.0,0.0,94,0.00,,,0.00,Wunderground v.1.15,2013-01-25 08:32:00,
2013-01-25 03:37:00,50.0,48.6,30.22,NE,52,0.0,0.0,95,0.00,,,0.00,Wunderground v.1.15,2013-01-25 08:37:00,
2013-01-25 03:42:00,50.0,48.6,30.22,NE,52,0.0,0.0,95,0.00,,,0.00,Wunderground v.1.15,2013-01-25 08:42:00,
2013-01-25 03:52:00,50.3,48.9,30.22,NE,52,0.0,0.0,95,0.00,,,0.00,Wunderground v.1.15,2013-01-25 08:52:00,
2013-01-25 04:02:00,50.1,48.7,30.22,NE,52,0.0,0.0,95,0.00,,,0.00,Wunderground v.1.15,2013-01-25 09:02:00,
2013-01-25 04:07:00,50.0,48.6,30.22,NE,52,0.0,0.0,95,0.00,,,0.00,Wunderground v.1.15,2013-01-25 09:07:00,
2013-01-25 04:12:00,50.0,48.6,30.22,NE,52,0.0,0.0,95,0.00,,,0.00,Wunderground v.1.15,2013-01-25 09:12:00,
2013-01-25 04:22:00,50.1,48.7,30.22,NE,52,0.0,0.0,95,0.00,,,0.00,Wunderground v.1.15,2013-01-25 09:22:00,
2013-01-25 04:27:00,50.4,49.3,30.22,NE,52,0.0,0.0,96,0.00,,,0.00,Wunderground v.1.15,2013-01-25 09:27:00,
2013-01-25 04:32:00,50.8,49.7,30.22,NE,52,0.0,0.0,96,0.00,,,0.00,Wunderground v.1.15,2013-01-25 09:32:00,
2013-01-25 04:37:00,50.9,49.8,30.22,NE,52,0.0,0.0,96,0.00,,,0.00,Wunderground v.1.15,2013-01-25 09:37:00,
2013-01-25 04:42:00,51.0,49.9,30.22,NE,52,0.0,0.0,96,0.00,,,0.00,Wunderground v.1.15,2013-01-25 09:42:00,
2013-01-25 04:52:00,51.2,50.1,30.23,NE,52,0.0,0.0,96,0.00,,,0.00,Wunderground v.1.15,2013-01-25 09:52:00,
2013-01-25 04:57:00,51.2,50.1,30.23,NE,52,0.0,0.0,96,0.00,,,0.00,Wunderground v.1.15,2013-01-25 09:57:00,
2013-01-25 05:07:00,51.2,49.8,30.22,NE,52,0.0,0.0,95,0.00,,,0.00,Wunderground v.1.15,2013-01-25 10:07:00,
2013-01-25 05:17:00,51.0,49.6,30.22,NE,52,0.0,0.0,95,0.00,,,0.00,Wunderground v.1.15,2013-01-25 10:17:00,
2013-01-25 05:22:00,50.9,49.5,30.22,NE,52,0.0,0.0,95,0.00,,,0.00,Wunderground v.1.15,2013-01-25 10:22:00,
2013-01-25 05:27:00,50.7,49.3,30.22,NE,52,0.0,0.0,95,0.00,,,0.00,Wunderground v.1.15,2013-01-25 10:27:00,
2013-01-25 05:32:00,50.6,49.2,30.23,NE,52,0.0,0.0,95,0.00,,,0.00,Wunderground v.1.15,2013-01-25 10:32:00,
2013-01-25 05:42:00,50.7,49.6,30.23,NE,52,0.0,0.0,96,0.00,,,0.00,Wunderground v.1.15,2013-01-25 10:42:00,
2013-01-25 05:52:00,50.7,49.6,30.23,NE,52,0.0,0.0,96,0.00,,,0.00,Wunderground v.1.15,2013-01-25 10:52:00,
2013-01-25 05:57:00,50.7,49.6,30.23,NE,52,0.0,0.0,96,0.00,,,0.00,Wunderground v.1.15,2013-01-25 10:57:00,
2013-01-25 06:02:00,50.8,49.7,30.24,NE,52,0.0,0.0,96,0.00,,,0.00,Wunderground v.1.15,2013-01-25 11:02:00,
2013-01-25 06:07:00,50.8,49.7,30.24,NE,52,0.0,0.0,96,0.00,,,0.00,Wunderground v.1.15,2013-01-25 11:07:00,
2013-01-25 06:12:00,51.0,49.9,30.25,NE,52,0.0,0.0,96,0.00,,,0.00,Wunderground v.1.15,2013-01-25 11:12:00,
2013-01-25 06:17:00,51.0,49.9,30.25,NE,52,0.0,0.0,96,0.00,,,0.01,Wunderground v.1.15,2013-01-25 11:17:00,
2013-01-25 06:27:00,50.9,49.8,30.25,NE,52,0.0,0.0,96,0.00,,,0.01,Wunderground v.1.15,2013-01-25 11:27:00,
2013-01-25 06:32:00,50.8,49.7,30.25,NE,52,0.0,0.0,96,0.00,,,0.01,Wunderground v.1.15,2013-01-25 11:32:00,
2013-01-25 06:37:00,50.8,49.7,30.25,NE,52,0.0,0.0,96,0.00,,,0.01,Wunderground v.1.15,2013-01-25 11:37:00,
2013-01-25 06:42:00,50.7,49.6,30.25,NE,52,0.0,0.0,96,0.00,,,0.01,Wunderground v.1.15,2013-01-25 11:42:00,
2013-01-25 06:47:00,50.6,49.5,30.25,NE,52,0.0,0.0,96,0.00,,,0.01,Wunderground v.1.15,2013-01-25 11:47:00,
2013-01-25 06:57:00,50.4,49.3,30.25,NE,52,0.0,0.0,96,0.00,,,0.01,Wunderground v.1.15,2013-01-25 11:57:00,
2013-01-25 07:02:00,50.3,49.2,30.25,NE,52,0.0,0.0,96,0.00,,,0.01,Wunderground v.1.15,2013-01-25 12:02:00,
2013-01-25 07:07:00,50.1,48.7,30.25,NE,52,0.0,0.0,95,0.00,,,0.01,Wunderground v.1.15,2013-01-25 12:07:00,
2013-01-25 07:12:00,49.9,48.5,30.26,NE,52,0.0,0.0,95,0.00,,,0.01,Wunderground v.1.15,2013-01-25 12:12:00,
2013-01-25 07:17:00,49.7,48.3,30.26,NE,52,0.0,0.0,95,0.00,,,0.01,Wunderground v.1.15,2013-01-25 12:17:00,
2013-01-25 07:22:00,49.5,48.1,30.26,NE,52,0.0,0.0,95,0.00,,,0.01,Wunderground v.1.15,2013-01-25 12:22:00,
2013-01-25 07:27:00,49.3,47.9,30.26,NE,52,0.0,0.0,95,0.00,,,0.01,Wunderground v.1.15,2013-01-25 12:27:00,
2013-01-25 07:32:00,49.2,47.8,30.26,NE,52,0.0,0.0,95,0.00,,,0.01,Wunderground v.1.15,2013-01-25 12:32:00,
2013-01-25 07:37:00,49.2,47.8,30.26,NE,52,0.0,0.0,95,0.00,,,0.01,Wunderground v.1.15,2013-01-25 12:37:00,
2013-01-25 07:42:00,49.1,48.0,30.26,NE,52,0.0,0.0,96,0.00,,,0.01,Wunderground v.1.15,2013-01-25 12:42:00,
2013-01-25 07:47:00,49.2,48.1,30.26,NE,52,0.0,0.0,96,0.00,,,0.01,Wunderground v.1.15,2013-01-25 12:47:00,
2013-01-25 07:52:00,49.5,48.4,30.26,NE,52,0.0,0.0,96,0.00,,,0.01,Wunderground v.1.15,2013-01-25 12:52:00,
2013-01-25 07:57:00,50.0,48.9,30.26,NE,52,0.0,0.0,96,0.00,,,0.01,Wunderground v.1.15,2013-01-25 12:57:00,
2013-01-25 08:02:00,50.5,49.7,30.26,NE,52,0.0,0.0,97,0.00,,,0.01,Wunderground v.1.15,2013-01-25 13:02:00,
2013-01-25 08:12:00,51.4,50.6,30.26,NE,52,0.0,0.0,97,0.00,,,0.01,Wunderground v.1.15,2013-01-25 13:12:00,
2013-01-25 08:17:00,52.0,51.2,30.26,NE,52,0.0,0.0,97,0.00,,,0.01,Wunderground v.1.15,2013-01-25 13:17:00,
2013-01-25 08:27:00,53.0,52.2,30.26,NE,52,0.0,0.0,97,0.00,,,0.01,Wunderground v.1.15,2013-01-25 13:27:00,
2013-01-25 08:37:00,53.9,53.1,30.27,NE,52,0.0,2.0,97,0.00,,,0.01,Wunderground v.1.15,2013-01-25 13:37:00,
2013-01-25 08:42:00,54.4,53.6,30.27,NE,52,1.0,1.0,97,0.00,,,0.01,Wunderground v.1.15,2013-01-25 13:42:00,
2013-01-25 08:52:00,55.6,54.2,30.27,NE,52,1.0,1.0,95,0.00,,,0.01,Wunderground v.1.15,2013-01-25 13:52:00,
2013-01-25 09:02:00,56.7,54.4,30.27,NE,51,1.0,1.0,92,0.00,,,0.01,Wunderground v.1.15,2013-01-25 14:02:00,
2013-01-25 09:07:00,57.3,54.7,30.27,NE,51,1.0,3.0,91,0.00,,,0.01,Wunderground v.1.15,2013-01-25 14:07:00,
2013-01-25 09:12:00,57.9,54.7,30.27,NE,51,1.0,3.0,89,0.00,,,0.01,Wunderground v.1.15,2013-01-25 14:12:00,
2013-01-25 09:22:00,59.3,54.8,30.27,NNE,32,2.0,3.0,85,0.00,,,0.01,Wunderground v.1.15,2013-01-25 14:22:00,
2013-01-25 09:27:00,59.9,54.7,30.27,NNE,19,4.0,4.0,83,0.00,,,0.01,Wunderground v.1.15,2013-01-25 14:27:00,
2013-01-25 09:32:00,60.5,55.0,30.28,NE,46,4.0,4.0,82,0.00,,,0.01,Wunderground v.1.15,2013-01-25 14:32:00,
2013-01-25 09:42:00,61.3,55.4,30.28,NE,52,5.0,5.0,81,0.00,,,0.01,Wunderground v.1.15,2013-01-25 14:42:00,
2013-01-25 09:48:00,61.7,55.8,30.28,NE,55,3.0,5.0,81,0.00,,,0.01,Wunderground v.1.15,2013-01-25 14:48:00,
2013-01-25 09:57:00,62.6,54.9,30.28,ENE,64,4.0,5.0,76,0.00,,,0.01,Wunderground v.1.15,2013-01-25 14:57:00,
2013-01-25 10:02:00,63.1,55.0,30.28,NNE,22,5.0,5.0,75,0.00,,,0.01,Wunderground v.1.15,2013-01-25 15:02:00,
2013-01-25 10:07:00,63.4,55.7,30.28,NE,43,4.0,5.0,76,0.00,,,0.01,Wunderground v.1.15,2013-01-25 15:07:00,
2013-01-25 10:12:00,63.8,55.4,30.28,NE,53,3.0,3.0,74,0.00,,,0.01,Wunderground v.1.15,2013-01-25 15:12:00,
2013-01-25 10:17:00,64.3,55.5,30.28,ENE,65,3.0,3.0,73,0.00,,,0.01,Wunderground v.1.15,2013-01-25 15:17:00,
2013-01-25 10:27:00,65.0,55.4,30.28,NE,38,3.0,5.0,71,0.00,,,0.01,Wunderground v.1.15,2013-01-25 15:27:00,
2013-01-25 10:32:00,65.3,54.5,30.28,NE,44,3.0,6.0,68,0.00,,,0.01,Wunderground v.1.15,2013-01-25 15:32:00,
2013-01-25 10:38:00,65.5,53.8,30.27,ENE,74,4.0,6.0,66,0.00,,,0.01,Wunderground v.1.15,2013-01-25 15:38:00,
2013-01-25 10:43:00,65.8,53.7,30.28,North,9,4.0,5.0,65,0.00,,,0.01,Wunderground v.1.15,2013-01-25 15:43:00,
2013-01-25 10:53:00,66.3,54.6,30.27,NE,47,3.0,3.0,66,0.00,,,0.01,Wunderground v.1.15,2013-01-25 15:53:00,
2013-01-25 10:58:00,66.6,55.3,30.27,NNE,23,3.0,3.0,67,0.00,,,0.01,Wunderground v.1.15,2013-01-25 15:58:00,
2013-01-25 11:03:00,66.9,54.7,30.27,NE,51,3.0,3.0,65,0.00,,,0.01,Wunderground v.1.15,2013-01-25 16:03:00,
2013-01-25 11:08:00,67.4,55.2,30.27,ENE,66,2.0,3.0,65,0.00,,,0.01,Wunderground v.1.15,2013-01-25 16:08:00,
2013-01-25 11:17:00,67.9,54.4,30.26,NE,43,1.0,1.0,62,0.00,,,0.01,Wunderground v.1.15,2013-01-25 16:17:00,
2013-01-25 11:23:00,68.1,53.7,30.26,East,96,2.0,2.0,60,0.00,,,0.01,Wunderground v.1.15,2013-01-25 16:23:00,
2013-01-25 11:33:00,68.6,51.8,30.26,ENE,63,1.0,2.0,55,0.00,,,0.01,Wunderground v.1.15,2013-01-25 16:33:00,
2013-01-25 11:38:00,68.9,52.6,30.26,NE,36,1.0,2.0,56,0.00,,,0.01,Wunderground v.1.15,2013-01-25 16:38:00,
2013-01-25 11:43:00,69.0,52.6,30.25,NNE,27,2.0,2.0,56,0.00,,,0.01,Wunderground v.1.15,2013-01-25 16:43:00,
2013-01-25 11:53:00,69.1,52.2,30.25,NE,46,1.0,1.0,55,0.00,,,0.01,Wunderground v.1.15,2013-01-25 16:53:00,
2013-01-25 11:58:00,69.4,52.5,30.25,ENE,59,2.0,3.0,55,0.00,,,0.01,Wunderground v.1.15,2013-01-25 16:58:00,
2013-01-25 12:03:00,69.4,52.5,30.25,NNE,28,3.0,3.0,55,0.00,,,0.01,Wunderground v.1.15,2013-01-25 17:03:00,
2013-01-25 12:08:00,69.6,52.7,30.25,ESE,118,2.0,3.0,55,0.00,,,0.01,Wunderground v.1.15,2013-01-25 17:08:00,
2013-01-25 12:18:00,70.7,53.2,30.24,East,88,2.0,2.0,54,0.00,,,0.01,Wunderground v.1.15,2013-01-25 17:18:00,
2013-01-25 12:23:00,70.8,52.8,30.24,ENE,76,2.0,4.0,53,0.00,,,0.01,Wunderground v.1.15,2013-01-25 17:23:00,
2013-01-25 12:28:00,70.9,52.9,30.23,ENE,76,2.0,4.0,53,0.00,,,0.01,Wunderground v.1.15,2013-01-25 17:28:00,
2013-01-25 12:38:00,70.9,52.4,30.22,ESE,115,1.0,2.0,52,0.00,,,0.01,Wunderground v.1.15,2013-01-25 17:38:00,
2013-01-25 12:43:00,71.1,52.0,30.22,ESE,111,1.0,3.0,51,0.00,,,0.01,Wunderground v.1.15,2013-01-25 17:43:00,
2013-01-25 12:48:00,71.5,51.9,30.21,ESE,107,2.0,3.0,50,0.00,,,0.01,Wunderground v.1.15,2013-01-25 17:48:00,
2013-01-25 12:58:00,72.3,52.1,30.21,SSE,149,2.0,3.0,49,0.00,,,0.01,Wunderground v.1.15,2013-01-25 17:58:00,
2013-01-25 13:03:00,72.7,51.9,30.21,East,100,2.0,2.0,48,0.00,,,0.01,Wunderground v.1.15,2013-01-25 18:03:00,
2013-01-25 13:08:00,72.8,52.0,30.20,ESE,114,2.0,7.0,48,0.00,,,0.01,Wunderground v.1.15,2013-01-25 18:08:00,
2013-01-25 13:13:00,72.7,52.4,30.20,ESE,103,3.0,5.0,49,0.00,,,0.01,Wunderground v.1.15,2013-01-25 18:13:00,
2013-01-25 13:23:00,73.4,52.5,30.19,SW,222,1.0,1.0,48,0.00,,,0.01,Wunderground v.1.15,2013-01-25 18:23:00,
2013-01-25 13:33:00,74.1,54.3,30.19,WSW,258,1.0,3.0,50,0.00,,,0.01,Wunderground v.1.15,2013-01-25 18:33:00,
2013-01-25 13:43:00,74.3,55.0,30.19,WSW,241,2.0,4.0,51,0.00,,,0.01,Wunderground v.1.15,2013-01-25 18:43:00,
2013-01-25 13:48:00,74.2,55.4,30.18,West,260,2.0,4.0,52,0.00,,,0.01,Wunderground v.1.15,2013-01-25 18:48:00,
2013-01-25 13:53:00,74.3,55.0,30.18,WSW,241,2.0,4.0,51,0.00,,,0.01,Wunderground v.1.15,2013-01-25 18:53:00,
2013-01-25 13:58:00,74.2,54.9,30.18,WSW,253,2.0,4.0,51,0.00,,,0.01,Wunderground v.1.15,2013-01-25 18:58:00,
2013-01-25 14:03:00,74.2,54.9,30.18,WSW,253,3.0,3.0,51,0.00,,,0.01,Wunderground v.1.15,2013-01-25 19:03:00,
2013-01-25 14:13:00,74.3,55.0,30.18,SW,221,2.0,3.0,51,0.00,,,0.01,Wunderground v.1.15,2013-01-25 19:13:00,
2013-01-25 14:18:00,74.2,55.4,30.18,SW,223,2.0,3.0,52,0.00,,,0.01,Wunderground v.1.15,2013-01-25 19:18:00,
2013-01-25 14:28:00,74.0,53.6,30.18,SW,221,3.0,5.0,49,0.00,,,0.01,Wunderground v.1.15,2013-01-25 19:28:00,
2013-01-25 14:33:00,73.8,53.4,30.18,SW,225,3.0,3.0,49,0.00,,,0.01,Wunderground v.1.15,2013-01-25 19:33:00,
2013-01-25 14:38:00,74.0,52.5,30.18,SW,227,2.0,4.0,47,0.00,,,0.01,Wunderground v.1.15,2013-01-25 19:38:00,
2013-01-25 14:48:00,73.7,52.8,30.17,WNW,283,3.0,7.0,48,0.00,,,0.01,Wunderground v.1.15,2013-01-25 19:48:00,
2013-01-25 14:53:00,73.7,53.3,30.17,WSW,237,3.0,7.0,49,0.00,,,0.01,Wunderground v.1.15,2013-01-25 19:53:00,
2013-01-25 14:58:00,73.4,52.5,30.17,WSW,248,3.0,7.0,48,0.00,,,0.01,Wunderground v.1.15,2013-01-25 19:58:00,
2013-01-25 15:03:00,73.2,52.9,30.17,SW,228,3.0,3.0,49,0.00,,,0.01,Wunderground v.1.15,2013-01-25 20:03:00,
2013-01-25 15:12:00,73.4,53.1,30.17,West,269,2.0,3.0,49,0.00,,,0.01,Wunderground v.1.15,2013-01-25 20:12:00,
2013-01-25 15:17:00,73.5,52.0,30.17,SSW,205,2.0,3.0,47,0.00,,,0.01,Wunderground v.1.15,2013-01-25 20:17:00,
2013-01-25 15:22:00,73.6,53.3,30.17,SW,224,2.0,2.0,49,0.00,,,0.01,Wunderground v.1.15,2013-01-25 20:22:00,
2013-01-25 15:32:00,73.6,52.7,30.17,WSW,246,2.0,2.0,48,0.00,,,0.01,Wunderground v.1.15,2013-01-25 20:32:00,
2013-01-25 15:37:00,73.5,53.2,30.17,SSW,196,2.0,2.0,49,0.00,,,0.01,Wunderground v.1.15,2013-01-25 20:37:00,
2013-01-25 15:47:00,73.7,54.4,30.17,WSW,254,1.0,2.0,51,0.00,,,0.01,Wunderground v.1.15,2013-01-25 20:47:00,
2013-01-25 15:52:00,73.7,53.9,30.17,WSW,237,1.0,4.0,50,0.00,,,0.01,Wunderground v.1.15,2013-01-25 20:52:00,
2013-01-25 16:02:00,73.5,54.3,30.17,West,281,2.0,2.0,51,0.00,,,0.01,Wunderground v.1.15,2013-01-25 21:02:00,
2013-01-25 16:07:00,73.2,55.0,30.17,West,267,2.0,2.0,53,0.00,,,0.01,Wunderground v.1.15,2013-01-25 21:07:00,
2013-01-25 16:12:00,73.0,54.3,30.17,WSW,240,2.0,2.0,52,0.00,,,0.01,Wunderground v.1.15,2013-01-25 21:12:00,
2013-01-25 16:17:00,72.8,54.1,30.17,SW,225,2.0,2.0,52,0.00,,,0.01,Wunderground v.1.15,2013-01-25 21:17:00,
2013-01-25 16:22:00,72.7,54.6,30.17,WSW,240,1.0,2.0,53,0.00,,,0.01,Wunderground v.1.15,2013-01-25 21:22:00,
2013-01-25 16:27:00,72.4,54.8,30.17,SW,232,2.0,3.0,54,0.00,,,0.01,Wunderground v.1.15,2013-01-25 21:27:00,
2013-01-25 16:32:00,72.2,55.6,30.17,WSW,237,1.0,2.0,56,0.00,,,0.01,Wunderground v.1.15,2013-01-25 21:32:00,
2013-01-25 16:37:00,71.9,54.9,30.17,WSW,243,1.0,2.0,55,0.00,,,0.01,Wunderground v.1.15,2013-01-25 21:37:00,
2013-01-25 16:42:00,71.7,54.7,30.17,WSW,252,1.0,1.0,55,0.00,,,0.01,Wunderground v.1.15,2013-01-25 21:42:00,
2013-01-25 16:52:00,71.5,54.5,30.17,SW,236,1.0,1.0,55,0.00,,,0.01,Wunderground v.1.15,2013-01-25 21:52:00,
2013-01-25 16:57:00,71.3,53.8,30.17,SW,217,1.0,1.0,54,0.00,,,0.01,Wunderground v.1.15,2013-01-25 21:57:00,
2013-01-25 17:08:00,70.2,54.2,30.17,SW,223,1.0,2.0,57,0.00,,,0.01,Wunderground v.1.15,2013-01-25 22:08:00,
2013-01-25 17:17:00,69.4,54.0,30.17,SW,225,0.0,2.0,58,0.00,,,0.01,Wunderground v.1.15,2013-01-25 22:17:00,
2013-01-25 17:22:00,69.0,55.0,30.17,SW,225,0.0,0.0,61,0.00,,,0.01,Wunderground v.1.15,2013-01-25 22:22:00,
2013-01-25 17:27:00,68.7,54.3,30.18,SW,225,0.0,0.0,60,0.00,,,0.01,Wunderground v.1.15,2013-01-25 22:27:00,
2013-01-25 17:37:00,68.1,54.1,30.17,SW,225,0.0,0.0,61,0.00,,,0.01,Wunderground v.1.15,2013-01-25 22:37:00,
2013-01-25 17:47:00,67.6,54.6,30.17,SW,225,0.0,0.0,63,0.00,,,0.01,Wunderground v.1.15,2013-01-25 22:47:00,
2013-01-25 17:52:00,67.2,55.0,30.17,SW,225,0.0,0.0,65,0.00,,,0.01,Wunderground v.1.15,2013-01-25 22:52:00,
2013-01-25 17:57:00,66.7,55.0,30.18,SW,225,0.0,0.0,66,0.00,,,0.01,Wunderground v.1.15,2013-01-25 22:57:00,
2013-01-25 18:02:00,66.2,54.9,30.18,SW,225,0.0,0.0,67,0.00,,,0.01,Wunderground v.1.15,2013-01-25 23:02:00,
2013-01-25 18:07:00,65.7,54.8,30.18,SW,225,0.0,0.0,68,0.00,,,0.01,Wunderground v.1.15,2013-01-25 23:07:00,
2013-01-25 18:13:00,65.2,55.2,30.18,SW,225,0.0,0.0,70,0.00,,,0.01,Wunderground v.1.15,2013-01-25 23:13:00,
2013-01-25 18:18:00,64.7,55.1,30.18,SW,225,0.0,0.0,71,0.00,,,0.01,Wunderground v.1.15,2013-01-25 23:18:00,
2013-01-25 18:23:00,64.1,54.9,30.18,SW,225,0.0,0.0,72,0.00,,,0.01,Wunderground v.1.15,2013-01-25 23:23:00,
2013-01-25 18:28:00,63.6,54.8,30.19,SW,225,0.0,0.0,73,0.00,,,0.01,Wunderground v.1.15,2013-01-25 23:28:00,
2013-01-25 18:33:00,63.1,54.7,30.19,SW,225,0.0,0.0,74,0.00,,,0.01,Wunderground v.1.15,2013-01-25 23:33:00,
2013-01-25 18:38:00,62.7,55.0,30.19,SW,225,0.0,0.0,76,0.00,,,0.01,Wunderground v.1.15,2013-01-25 23:38:00,
2013-01-25 18:43:00,62.3,55.0,30.19,SW,225,0.0,0.0,77,0.00,,,0.01,Wunderground v.1.15,2013-01-25 23:43:00,
2013-01-25 18:48:00,62.1,55.2,30.19,SW,225,0.0,0.0,78,0.00,,,0.01,Wunderground v.1.15,2013-01-25 23:48:00,
2013-01-25 18:53:00,62.0,55.4,30.19,SW,225,0.0,0.0,79,0.00,,,0.01,Wunderground v.1.15,2013-01-25 23:53:00,
2013-01-25 18:58:00,61.9,55.3,30.19,SW,225,0.0,0.0,79,0.00,,,0.01,Wunderground v.1.15,2013-01-25 23:58:00,
2013-01-25 19:03:00,61.8,55.6,30.18,SW,226,0.0,0.0,80,0.00,,,0.01,Wunderground v.1.15,2013-01-26 00:03:00,
2013-01-25 19:08:00,61.7,55.5,30.19,SW,227,0.0,0.0,80,0.00,,,0.01,Wunderground v.1.15,2013-01-26 00:08:00,
2013-01-25 19:18:00,61.6,55.7,30.19,SW,227,0.0,0.0,81,0.00,,,0.01,Wunderground v.1.15,2013-01-26 00:18:00,
2013-01-25 19:23:00,61.6,56.0,30.19,SW,227,0.0,0.0,82,0.00,,,0.01,Wunderground v.1.15,2013-01-26 00:23:00,
2013-01-25 19:28:00,61.6,56.0,30.18,SW,227,0.0,0.0,82,0.00,,,0.01,Wunderground v.1.15,2013-01-26 00:28:00,
2013-01-25 19:33:00,61.5,56.3,30.18,SW,227,0.0,0.0,83,0.00,,,0.01,Wunderground v.1.15,2013-01-26 00:33:00,
2013-01-25 19:43:00,61.3,56.1,30.18,SW,227,0.0,0.0,83,0.00,,,0.01,Wunderground v.1.15,2013-01-26 00:43:00,
2013-01-25 19:53:00,60.8,55.9,30.18,SW,227,0.0,0.0,84,0.00,,,0.01,Wunderground v.1.15,2013-01-26 00:53:00,
2013-01-25 19:58:00,60.7,56.2,30.18,SW,227,0.0,0.0,85,0.00,,,0.01,Wunderground v.1.15,2013-01-26 00:58:00,
2013-01-25 20:03:00,60.5,55.6,30.18,SW,227,0.0,0.0,84,0.00,,,0.01,Wunderground v.1.15,2013-01-26 01:03:00,
2013-01-25 20:08:00,60.3,55.8,30.18,SW,227,0.0,0.0,85,0.00,,,0.01,Wunderground v.1.15,2013-01-26 01:08:00,
2013-01-25 20:13:00,60.1,55.6,30.18,SW,227,0.0,0.0,85,0.00,,,0.01,Wunderground v.1.15,2013-01-26 01:13:00,
2013-01-25 20:18:00,59.9,55.4,30.18,SW,227,0.0,0.0,85,0.00,,,0.01,Wunderground v.1.15,2013-01-26 01:18:00,
2013-01-25 20:23:00,59.6,55.4,30.18,SW,227,0.0,0.0,86,0.00,,,0.01,Wunderground v.1.15,2013-01-26 01:23:00,
2013-01-25 20:33:00,59.0,54.8,30.18,SW,227,0.0,0.0,86,0.00,,,0.01,Wunderground v.1.15,2013-01-26 01:33:00,
2013-01-25 20:43:00,58.3,54.4,30.18,SW,227,0.0,0.0,87,0.00,,,0.01,Wunderground v.1.15,2013-01-26 01:43:00,
2013-01-25 20:48:00,58.0,54.5,30.19,SW,227,0.0,0.0,88,0.00,,,0.01,Wunderground v.1.15,2013-01-26 01:48:00,
2013-01-25 20:53:00,57.8,54.3,30.19,SW,227,0.0,0.0,88,0.00,,,0.01,Wunderground v.1.15,2013-01-26 01:53:00,
2013-01-25 21:03:00,57.5,54.6,30.19,SW,227,0.0,0.0,90,0.00,,,0.01,Wunderground v.1.15,2013-01-26 02:03:00,
2013-01-25 21:08:00,57.2,54.3,30.19,SW,227,0.0,0.0,90,0.00,,,0.01,Wunderground v.1.15,2013-01-26 02:08:00,
2013-01-25 21:13:00,57.0,54.1,30.19,SW,227,0.0,0.0,90,0.00,,,0.01,Wunderground v.1.15,2013-01-26 02:13:00,
2013-01-25 21:23:00,56.7,54.1,30.19,SW,227,0.0,0.0,91,0.00,,,0.01,Wunderground v.1.15,2013-01-26 02:23:00,
2013-01-25 21:28:00,56.4,53.8,30.19,SW,227,0.0,0.0,91,0.00,,,0.01,Wunderground v.1.15,2013-01-26 02:28:00,
2013-01-25 21:33:00,56.3,53.7,30.19,SW,227,0.0,0.0,91,0.00,,,0.01,Wunderground v.1.15,2013-01-26 02:33:00,
2013-01-25 21:38:00,56.2,53.9,30.19,SW,227,0.0,0.0,92,0.00,,,0.01,Wunderground v.1.15,2013-01-26 02:38:00,
2013-01-25 21:48:00,55.8,53.5,30.19,SW,227,0.0,0.0,92,0.00,,,0.01,Wunderground v.1.15,2013-01-26 02:48:00,
2013-01-25 21:58:00,55.5,53.2,30.19,SW,227,0.0,0.0,92,0.00,,,0.01,Wunderground v.1.15,2013-01-26 02:58:00,
2013-01-25 22:03:00,55.4,53.1,30.19,SW,227,0.0,0.0,92,0.00,,,0.01,Wunderground v.1.15,2013-01-26 03:03:00,
2013-01-25 22:08:00,55.1,52.8,30.19,SW,227,0.0,0.0,92,0.00,,,0.01,Wunderground v.1.15,2013-01-26 03:08:00,
2013-01-25 22:17:00,54.9,52.6,30.19,SW,227,0.0,0.0,92,0.00,,,0.01,Wunderground v.1.15,2013-01-26 03:17:00,
2013-01-25 22:22:00,54.7,52.4,30.19,SW,227,0.0,0.0,92,0.00,,,0.01,Wunderground v.1.15,2013-01-26 03:22:00,
2013-01-25 22:32:00,54.5,52.5,30.19,SW,227,0.0,0.0,93,0.00,,,0.01,Wunderground v.1.15,2013-01-26 03:32:00,
2013-01-25 22:37:00,54.4,52.4,30.19,SW,227,0.0,0.0,93,0.00,,,0.01,Wunderground v.1.15,2013-01-26 03:37:00,
2013-01-25 22:42:00,54.3,52.3,30.19,SW,227,0.0,0.0,93,0.00,,,0.01,Wunderground v.1.15,2013-01-26 03:42:00,
2013-01-25 22:52:00,54.0,52.0,30.19,SW,227,0.0,0.0,93,0.00,,,0.01,Wunderground v.1.15,2013-01-26 03:52:00,
2013-01-25 22:57:00,53.9,51.9,30.19,SW,227,0.0,0.0,93,0.00,,,0.01,Wunderground v.1.15,2013-01-26 03:57:00,
2013-01-25 23:02:00,53.7,51.7,30.18,SW,227,0.0,0.0,93,0.00,,,0.01,Wunderground v.1.15,2013-01-26 04:02:00,
2013-01-25 23:07:00,53.5,51.5,30.18,SW,227,0.0,0.0,93,0.00,,,0.01,Wunderground v.1.15,2013-01-26 04:07:00,
2013-01-25 23:17:00,53.2,51.2,30.18,SW,227,0.0,0.0,93,0.00,,,0.01,Wunderground v.1.15,2013-01-26 04:17:00,
2013-01-25 23:22:00,53.1,51.1,30.18,SW,227,0.0,0.0,93,0.00,,,0.01,Wunderground v.1.15,2013-01-26 04:22:00,
2013-01-25 23:27:00,53.1,51.4,30.19,SW,227,0.0,0.0,94,0.00,,,0.01,Wunderground v.1.15,2013-01-26 04:27:00,
2013-01-25 23:37:00,53.3,51.6,30.19,SW,227,0.0,0.0,94,0.00,,,0.01,Wunderground v.1.15,2013-01-26 04:37:00,
2013-01-25 23:47:00,53.1,51.4,30.19,SW,227,0.0,0.0,94,0.00,,,0.01,Wunderground v.1.15,2013-01-26 04:47:00,
2013-01-25 23:52:00,52.9,51.2,30.19,SW,227,0.0,0.0,94,0.00,,,0.01,Wunderground v.1.15,2013-01-26 04:52:00,
2013-01-25 23:57:00,52.6,50.6,30.19,SW,227,0.0,0.0,93,0.00,,,0.01,Wunderground v.1.15,2013-01-26 04:57:00,